Time;durP1;ratioP1;P1;durP2;ratioP2;P2;SDS_P1;SDS_P2;PMS_P1;PMS_P2;Temp;Humidity;BMP_temperature;BMP_pressure;BME280_temperature;BME280_humidity;BME280_pressure;Samples;Min_cycle;Max_cycle;Signal;HPM_P1;HPM_P2
2022/02/02 00:02:38;;;;;;;22.38;10.23;;;;;;;;;;10513840;28;20452;-72
2022/02/02 00:07:50;;;;;;;17.80;9.13;;;;;;;;;;10513586;28;20040;-71
2022/02/02 00:12:58;;;;;;;23.48;10.13;;;;;;;;;;10531771;28;20038;-72
2022/02/02 00:23:20;;;;;;;;;;;;;;;;;;10532699;28;20416;-71
2022/02/02 00:28:25;;;;;;;27.02;10.52;;;;;;;;;;10530669;28;19922;-72
2022/02/02 00:33:30;;;;;;;20.73;11.10;;;;;;;;;;10530433;28;20093;-73
2022/02/02 00:38:30;;;;;;;25.02;10.07;;;;;;;;;;10512271;28;20654;-73
2022/02/02 00:43:30;;;;;;;18.58;9.75;;;;;;;;;;10511611;28;20135;-72
2022/02/02 00:48:33;;;;;;;24.60;11.10;;;;;;;;;;10512512;28;20035;-72
2022/02/02 00:53:33;;;;;;;24.27;10.05;;;;;;;;;;10512141;28;20449;-73
2022/02/02 00:58:36;;;;;;;23.25;12.30;;;;;;;;;;10511988;28;20027;-75
2022/02/02 01:03:36;;;;;;;20.55;10.13;;;;;;;;;;10512634;28;20055;-72
2022/02/02 01:29:46;;;;;;;26.38;10.20;;;;;;;;;;10513192;28;20402;-72
2022/02/02 01:34:46;;;;;;;18.50;10.43;;;;;;;;;;10453429;28;20036;-75
2022/02/02 01:39:52;;;;;;;19.42;10.18;;;;;;;;;;10472846;28;20313;-68
2022/02/02 01:45:02;;;;;;;24.33;10.55;;;;;;;;;;10495668;28;20032;-70
2022/02/02 01:50:23;;;;;;;27.38;11.63;;;;;;;;;;10494532;28;20036;-74
2022/02/02 01:55:31;;;;;;;26.52;12.70;;;;;;;;;;10493990;28;20033;-74
2022/02/02 02:00:31;;;;;;;27.00;12.40;;;;;;;;;;10489102;28;20417;-71
2022/02/02 02:05:31;;;;;;;28.70;13.57;;;;;;;;;;10514931;28;20293;-73
2022/02/02 02:10:32;;;;;;;36.45;15.50;;;;;;;;;;10516840;28;20115;-72
2022/02/02 02:15:32;;;;;;;33.27;15.13;;;;;;;;;;10518569;28;20027;-74
2022/02/02 02:20:33;;;;;;;28.02;12.98;;;;;;;;;;10501807;28;20036;-78
2022/02/02 02:25:37;;;;;;;32.55;12.52;;;;;;;;;;10530094;28;20032;-77
2022/02/02 02:36:20;;;;;;;33.15;12.93;;;;;;;;;;10535907;28;20038;-76
2022/02/02 02:57:00;;;;;;;36.40;15.98;;;;;;;;;;10534806;28;20581;-71
2022/02/02 04:06:05;;;;;;;33.45;16.75;;;;;;;;;;10489533;28;20020;-72
2022/02/02 04:11:15;;;;;;;34.50;15.20;;;;;;;;;;10471986;28;20024;-72
2022/02/02 05:41:21;;;;;;;32.80;17.13;;;;;;;;;;10536020;28;20056;-71
2022/02/02 05:51:33;;;;;;;32.65;16.00;;;;;;;;;;10498371;28;20020;-72
2022/02/02 05:56:39;;;;;;;45.92;17.98;;;;;;;;;;10481286;28;20044;-71
2022/02/02 06:01:44;;;;;;;44.17;19.70;;;;;;;;;;10479600;28;20120;-72
2022/02/02 06:06:47;;;;;;;45.53;22.15;;;;;;;;;;10540191;28;20153;-73
2022/02/02 06:11:51;;;;;;;43.00;19.17;;;;;;;;;;10523510;28;20028;-71
2022/02/02 06:16:53;;;;;;;50.78;20.20;;;;;;;;;;10507684;28;20034;-72
2022/02/02 06:22:01;;;;;;;48.47;20.23;;;;;;;;;;10541953;28;20443;-72
2022/02/02 06:27:11;;;;;;;53.85;21.02;;;;;;;;;;10519296;28;20486;-71
2022/02/02 06:32:14;;;;;;;54.63;22.40;;;;;;;;;;10517392;28;20111;-71
2022/02/02 06:37:14;;;;;;;52.17;23.65;;;;;;;;;;10516856;28;20032;-71
2022/02/02 06:42:15;;;;;;;44.90;21.30;;;;;;;;;;10534820;28;20478;-75
2022/02/02 06:47:16;;;;;;;47.83;25.40;;;;;;;;;;10535484;28;20448;-75
2022/02/02 06:52:24;;;;;;;47.63;23.35;;;;;;;;;;10515215;28;20027;-72
2022/02/02 06:57:34;;;;;;;48.60;21.88;;;;;;;;;;10517275;28;20386;-74
2022/02/02 07:03:18;;;;;;;59.08;22.13;;;;;;;;;;10515546;28;20032;-73
2022/02/02 07:08:22;;;;;;;52.45;24.35;;;;;;;;;;10530253;28;20040;-72
2022/02/02 07:13:39;;;;;;;57.67;26.48;;;;;;;;;;10515006;28;20063;-73
2022/02/02 07:18:54;;;;;;;53.63;24.77;;;;;;;;;;10515208;28;20039;-72
2022/02/02 07:34:25;;;;;;;66.10;25.73;;;;;;;;;;10533344;28;20039;-72
2022/02/02 07:39:26;;;;;;;51.72;20.30;;;;;;;;;;10514334;28;20060;-72
2022/02/02 07:44:29;;;;;;;49.40;21.63;;;;;;;;;;10514476;28;20032;-72
2022/02/02 07:49:31;;;;;;;40.40;18.55;;;;;;;;;;10532346;28;20032;-76
2022/02/02 07:54:37;;;;;;;60.95;21.73;;;;;;;;;;10514044;28;20031;-74
2022/02/02 07:59:54;;;;;;;44.00;18.95;;;;;;;;;;10533021;28;20039;-71
2022/02/02 08:04:54;;;;;;;49.92;18.17;;;;;;;;;;10512500;28;20039;-72
2022/02/02 08:10:06;;;;;;;40.70;16.67;;;;;;;;;;10496776;28;20032;-71
2022/02/02 08:15:06;;;;;;;36.58;16.45;;;;;;;;;;10513024;28;20032;-72
2022/02/02 08:20:07;;;;;;;38.88;17.15;;;;;;;;;;10512854;28;20032;-76
2022/02/02 08:25:11;;;;;;;37.78;15.23;;;;;;;;;;10531050;28;20044;-75
2022/02/02 08:30:13;;;;;;;27.58;12.45;;;;;;;;;;10512867;28;20648;-75
2022/02/02 08:35:14;;;;;;;42.08;15.70;;;;;;;;;;10530846;28;20039;-75
2022/02/02 08:40:26;;;;;;;38.13;15.43;;;;;;;;;;10511817;28;20504;-71
2022/02/02 08:45:31;;;;;;;28.50;13.85;;;;;;;;;;10512438;28;20097;-71
2022/02/02 08:50:49;;;;;;;29.92;12.80;;;;;;;;;;10529541;28;20062;-73
2022/02/02 09:01:33;;;;;;;33.08;12.60;;;;;;;;;;10531023;28;20113;-73
2022/02/02 09:06:29;;;;;;;25.70;11.65;;;;;;;;;;10529427;28;20166;-79
2022/02/02 09:33:31;;;;;;;27.75;12.20;;;;;;;;;;10529957;28;20127;-72
2022/02/02 09:38:22;;;;;;;29.40;11.38;;;;;;;;;;10529052;28;20110;-73
2022/02/02 09:43:26;;;;;;;30.23;12.32;;;;;;;;;;10535840;28;20082;-73
2022/02/02 09:48:41;;;;;;;31.00;10.57;;;;;;;;;;10510789;28;20039;-73
2022/02/02 09:53:55;;;;;;;32.10;11.30;;;;;;;;;;10510044;28;20036;-73
2022/02/02 10:04:25;;;;;;;24.15;10.88;;;;;;;;;;10535304;28;20058;-75
2022/02/02 10:14:50;;;;;;;25.30;11.57;;;;;;;;;;10536337;28;20031;-72
2022/02/02 10:19:50;;;;;;;33.47;11.80;;;;;;;;;;10517932;28;20137;-74
2022/02/02 10:24:53;;;;;;;24.98;11.35;;;;;;;;;;10535500;28;20509;-72
2022/02/02 10:30:03;;;;;;;25.48;9.75;;;;;;;;;;10517476;28;20035;-73
2022/02/02 10:35:04;;;;;;;32.05;11.27;;;;;;;;;;10535558;28;20032;-73
2022/02/02 10:40:06;;;;;;;27.30;9.80;;;;;;;;;;10516731;28;20059;-71
2022/02/02 10:45:25;;;;;;;25.88;9.60;;;;;;;;;;10516236;28;20464;-72
2022/02/02 10:55:51;;;;;;;17.83;9.90;;;;;;;;;;10534646;28;20006;-80
2022/02/02 11:11:30;;;;;;;39.17;11.35;;;;;;;;;;10533405;28;20110;-73
2022/02/02 11:16:32;;;;;;;28.38;9.38;;;;;;;;;;10515802;28;20032;-79
2022/02/02 11:21:34;;;;;;;18.90;8.50;;;;;;;;;;10514968;28;20374;-77
2022/02/02 11:26:43;;;;;;;31.58;10.10;;;;;;;;;;10514608;28;20579;-74
2022/02/02 11:32:13;;;;;;;19.88;8.70;;;;;;;;;;10514522;28;20036;-76
2022/02/02 11:37:14;;;;;;;23.75;9.93;;;;;;;;;;10501475;28;20040;-71
2022/02/02 11:43:06;;;;;;;19.98;9.85;;;;;;;;;;10514149;28;20052;-73
2022/02/02 11:48:14;;;;;;;21.85;9.38;;;;;;;;;;10386153;28;20534;-71
2022/02/02 11:53:44;;;;;;;21.67;8.32;;;;;;;;;;10510217;28;20040;-71
2022/02/02 11:58:44;;;;;;;18.98;7.32;;;;;;;;;;10501525;28;20032;-71
2022/02/02 12:46:53;;;;;;;24.70;11.27;;;;;;;;;;10531284;28;20024;-73
2022/02/02 12:56:34;;;;;;;20.60;10.48;;;;;;;;;;10530576;28;20490;-73
2022/02/02 13:01:34;;;;;;;24.05;11.07;;;;;;;;;;10516722;28;20093;-77
2022/02/02 13:06:41;;;;;;;28.33;10.67;;;;;;;;;;10469867;28;20105;-78
2022/02/02 13:11:41;;;;;;;22.50;10.10;;;;;;;;;;10487697;28;20036;-75
2022/02/02 13:16:41;;;;;;;20.33;9.02;;;;;;;;;;10505220;28;20037;-71
2022/02/02 13:21:47;;;;;;;21.25;10.30;;;;;;;;;;10472999;28;20036;-71
2022/02/02 13:27:01;;;;;;;20.25;9.00;;;;;;;;;;10510223;28;20570;-71
2022/02/02 13:32:16;;;;;;;20.92;10.35;;;;;;;;;;10510929;28;20113;-74
2022/02/02 13:43:04;;;;;;;19.75;10.73;;;;;;;;;;10538159;28;20063;-75
2022/02/02 14:35:18;;;;;;;23.85;9.68;;;;;;;;;;10493169;28;20048;-71
2022/02/02 14:40:26;;;;;;;21.40;9.63;;;;;;;;;;10474323;28;20547;-75
2022/02/02 14:45:29;;;;;;;19.52;9.38;;;;;;;;;;10473955;28;20039;-73
2022/02/02 14:50:48;;;;;;;19.52;9.77;;;;;;;;;;10474072;28;20379;-72
2022/02/02 14:56:22;;;;;;;18.70;9.88;;;;;;;;;;10474947;28;20094;-71
2022/02/02 15:08:21;;;;;;;28.33;10.55;;;;;;;;;;10437562;28;20064;-71
2022/02/02 15:28:06;;;;;;;23.98;10.80;;;;;;;;;;10491553;28;20033;-71
2022/02/02 15:33:11;;;;;;;29.67;9.13;;;;;;;;;;10490618;28;20460;-71
2022/02/02 15:38:23;;;;;;;24.08;9.15;;;;;;;;;;10491515;28;20708;-75
2022/02/02 15:43:47;;;;;;;17.83;9.43;;;;;;;;;;10489975;28;20028;-72
2022/02/02 16:04:44;;;;;;;17.98;9.05;;;;;;;;;;10489671;28;20021;-74
2022/02/02 16:14:49;;;;;;;19.05;8.55;;;;;;;;;;10489865;28;20032;-73
2022/02/02 16:25:27;;;;;;;16.98;7.72;;;;;;;;;;10489984;28;20029;-74
2022/02/02 16:40:36;;;;;;;15.52;6.80;;;;;;;;;;10488447;28;20583;-72
2022/02/02 16:45:38;;;;;;;19.50;7.85;;;;;;;;;;10470242;28;20405;-73
2022/02/02 16:50:41;;;;;;;13.98;7.07;;;;;;;;;;10470301;28;20112;-73
2022/02/02 16:55:51;;;;;;;18.92;8.00;;;;;;;;;;10499610;28;20092;-72
2022/02/02 17:33:04;;;;;;;10.00;5.63;;;;;;;;;;10488384;28;20028;-73
2022/02/02 17:38:18;;;;;;;14.95;5.82;;;;;;;;;;10471800;28;20139;-72
2022/02/02 18:20:51;;;;;;;17.35;5.28;;;;;;;;;;10485871;28;20028;-73
2022/02/02 18:47:14;;;;;;;8.80;4.80;;;;;;;;;;10532779;28;20028;-72
2022/02/02 20:05:45;;;;;;;12.40;6.53;;;;;;;;;;10490230;28;20033;-79
2022/02/02 20:11:04;;;;;;;12.95;6.00;;;;;;;;;;10489392;28;20486;-81
2022/02/02 20:16:06;;;;;;;21.05;5.32;;;;;;;;;;10488288;28;20058;-78
2022/02/02 20:21:09;;;;;;;10.63;5.38;;;;;;;;;;10472569;28;20123;-78
2022/02/02 20:26:12;;;;;;;12.30;6.32;;;;;;;;;;10472138;28;20055;-75
2022/02/02 20:31:13;;;;;;;13.70;6.35;;;;;;;;;;10478659;28;20433;-79
2022/02/02 20:36:14;;;;;;;13.68;5.10;;;;;;;;;;10528866;28;20032;-76
2022/02/02 20:41:14;;;;;;;15.63;5.23;;;;;;;;;;10528166;28;20188;-75
2022/02/02 21:07:53;;;;;;;9.45;5.30;;;;;;;;;;10488879;28;20033;-75
2022/02/02 21:18:15;;;;;;;7.60;4.78;;;;;;;;;;10529857;28;20028;-75
2022/02/02 21:28:22;;;;;;;8.43;5.22;;;;;;;;;;10529480;28;20040;-83
2022/02/02 21:33:22;;;;;;;12.27;6.05;;;;;;;;;;10511242;28;20043;-75
2022/02/02 21:43:27;;;;;;;7.50;4.97;;;;;;;;;;10529374;28;20127;-78
2022/02/02 21:48:32;;;;;;;7.57;4.53;;;;;;;;;;10527855;28;20035;-79
2022/02/02 21:53:32;;;;;;;13.05;5.82;;;;;;;;;;10528020;28;20043;-80
2022/02/02 21:58:33;;;;;;;12.82;4.72;;;;;;;;;;10523279;28;20417;-82
2022/02/02 22:03:33;;;;;;;7.78;4.53;;;;;;;;;;10519199;28;20024;-74
2022/02/02 22:08:33;;;;;;;10.15;5.93;;;;;;;;;;10517805;28;20038;-77
2022/02/02 22:13:38;;;;;;;10.90;5.63;;;;;;;;;;10536252;28;20080;-79
2022/02/02 22:18:40;;;;;;;10.77;5.68;;;;;;;;;;10517786;28;20050;-75
2022/02/02 22:23:42;;;;;;;12.82;6.10;;;;;;;;;;10518141;28;20450;-74
2022/02/02 22:28:42;;;;;;;9.82;4.82;;;;;;;;;;10517587;28;20122;-79
2022/02/02 22:33:42;;;;;;;9.63;5.47;;;;;;;;;;10517122;28;20050;-75
2022/02/02 22:38:44;;;;;;;9.68;5.53;;;;;;;;;;10528631;28;20148;-74
2022/02/02 22:43:47;;;;;;;9.75;5.65;;;;;;;;;;10491756;28;20056;-74
2022/02/02 22:48:48;;;;;;;7.10;4.90;;;;;;;;;;10499582;28;20467;-75
2022/02/02 22:53:48;;;;;;;8.83;5.10;;;;;;;;;;10494623;28;20036;-74
2022/02/02 22:58:50;;;;;;;9.18;5.55;;;;;;;;;;10498829;28;20259;-75
2022/02/02 23:03:52;;;;;;;10.98;5.40;;;;;;;;;;10495062;28;20036;-81
2022/02/02 23:08:53;;;;;;;10.38;6.00;;;;;;;;;;10491559;28;20115;-75
2022/02/02 23:13:55;;;;;;;11.43;7.05;;;;;;;;;;10492775;28;20098;-74
2022/02/02 23:18:55;;;;;;;13.30;8.15;;;;;;;;;;10492755;28;20474;-75
2022/02/02 23:24:02;;;;;;;13.60;6.88;;;;;;;;;;10491703;28;20041;-75
2022/02/02 23:29:03;;;;;;;17.52;8.48;;;;;;;;;;10492682;28;20033;-75
2022/02/02 23:34:03;;;;;;;13.35;7.32;;;;;;;;;;10490090;28;20040;-75
2022/02/02 23:39:04;;;;;;;16.35;7.28;;;;;;;;;;10474306;28;20043;-77
2022/02/02 23:44:04;;;;;;;16.17;7.77;;;;;;;;;;10490589;28;20113;-75
2022/02/02 23:49:08;;;;;;;15.97;8.40;;;;;;;;;;10491413;28;20032;-75
